Impacts TAF Board INFO
FOR SITUATIONAL AWARENESS. NOT TO BE USED FOR FLIGHT PLANNING PURPOSES.
IDs:

KCVG - Cincinnati Intl, KY, US

Issued at 2327 UTC 19 Sep 2017
Updated at 0210 UTC 20 Sep 2017
Potential Impact None Slight Moderate High
Time0152Z 20/03Z 20/04Z 20/05Z 20/06Z 20/07Z 20/08Z 20/09Z 20/10Z 20/11Z 20/12Z 20/13Z 20/14Z 20/15Z>>
Type OBS PRVL PRVL PRVL PRVL PRVL PRVL PRVL PRVL PRVL PRVL PRVL PRVL PRVL
VIS 10 >6 >6 >6 >6 5 5 5 2 2 2 >6 >6 >6
CIG -- -- -- -- -- -- -- -- 15 15 15 15 15 15
Cover CLR SCT SCT SCT SCT SCT SCT SCT BKN BKN BKN BKN BKN BKN
FltCat VFR VFR VFR VFR VFR MVFR MVFR MVFR IFR IFR IFR MVFR MVFR MVFR
WX -- -- -- -- -- BR BR BR BR BR BR -- -- --
WDir 180 200 200 200 200 VRB VRB VRB VRB VRB VRB VRB VRB VRB
WSpd 3 3 3 3 3 3 3 3 3 3 3 3 3 3
WGst -- -- -- -- -- -- -- -- -- -- -- -- -- --

Raw TAF
KCVG 192327Z 2000/2106 19005KT P6SM VCSH BKN040
  FM200200 20003KT P6SM SCT250
  FM200700 VRB03KT 5SM BR SCT015
  FM201000 VRB03KT 2SM BR BKN015
  FM201300 VRB03KT P6SM BKN015
  FM201600 24006KT P6SM SCT050
  FM210000 VRB03KT P6SM SCT100


Raw METAR
KCVG 200152Z 18003KT 10SM CLR 19/19 A2996 RMK AO2 SLP138 T01940194
KCVG 200052Z 00000KT 10SM CLR 20/20 A2995 RMK AO2 SLP134 T02000200
KCVG 192352Z 21004KT 10SM FEW025 SCT050 SCT250 22/20 A2995 RMK AO2 SLP132 T02220200 10256 20211 53003

METAR Board
Radar Display
Forecast Discussion

FOR SITUATIONAL AWARENESS. NOT TO BE USED FOR FLIGHT PLANNING PURPOSES.